Flight Track Log - Related Links

Times and Time Zones

All times are in EDT time to prevent confusion due to time zone crossing. See the SAS403 flight status page for this flight to view local times or setup timezone preferences in your user account.

Time Position Orientation Groundspeed Altitude Reporting Facility
EDT Latitude Longitude Course Direction KTS MPH feet Rate Location/Type
Sat 04:11:00 AM 59.4298 17.5880 217° Southwest  Level Estimated
Sat 04:12:00 AM 59.3556 17.4788 217° Southwest  Level Estimated
Sat 04:13:00 AM 59.2813 17.3700 217° Southwest  Level Estimated
Sat 04:14:00 AM 59.2069 17.2617 217° Southwest  Level Estimated
Sat 04:15:00 AM 59.1324 17.1539 217° Southwest  Level Estimated
Sat 04:16:00 AM 59.0578 17.0466 217° Southwest  Level Estimated
Sat 04:17:00 AM 58.9832 16.9397 216° Southwest  Level Estimated
Sat 04:18:00 AM 58.9084 16.8333 216° Southwest  Level Estimated
Sat 04:19:00 AM 58.8336 16.7273 216° Southwest  Level Estimated
Sat 04:20:00 AM 58.7586 16.6218 216° Southwest  Level Estimated
Sat 04:21:00 AM 58.6836 16.5168 216° Southwest  Level Estimated
Sat 04:22:00 AM 58.6085 16.4122 216° Southwest  Level Estimated
Sat 04:23:00 AM 58.5333 16.3081 216° Southwest  Level Estimated
Sat 04:24:00 AM 58.4580 16.2044 216° Southwest  Level Estimated
Sat 04:25:00 AM 58.3748 16.0904 216° Southwest  Level Estimated
Sat 04:26:00 AM 58.2915 15.9769 216° Southwest  Level Estimated
Sat 04:27:00 AM 58.2081 15.8640 216° Southwest  Level Estimated
Sat 04:28:00 AM 58.1246 15.7516 215° Southwest  Level Estimated
Sat 04:29:00 AM 58.0410 15.6398 215° Southwest  Level Estimated
Sat 04:30:00 AM 57.9573 15.5284 215° Southwest  Level Estimated
Sat 04:31:00 AM 57.8735 15.4176 215° Southwest  Level Estimated
Sat 04:32:00 AM 57.7896 15.3073 215° Southwest  Level Estimated
Sat 04:33:00 AM 57.7056 15.1975 215° Southwest  Level Estimated
Sat 04:34:00 AM 57.6215 15.0882 215° Southwest  Level Estimated
Sat 04:35:00 AM 57.5373 14.9795 215° Southwest  Level Estimated
Sat 04:36:00 AM 57.4531 14.8712 215° Southwest  Level Estimated
Sat 04:37:00 AM 57.3687 14.7634 215° Southwest  Level Estimated
Sat 04:38:00 AM 57.2842 14.6561 214° Southwest  Level Estimated
Sat 04:39:00 AM 57.1997 14.5493 214° Southwest  Level Estimated
Sat 04:40:00 AM 57.1151 14.4430 214° Southwest  Level Estimated
Sat 04:41:00 AM 57.0303 14.3372 214° Southwest  Level Estimated
Sat 04:42:00 AM 56.9455 14.2318 214° Southwest  Level Estimated
Sat 04:43:00 AM 56.8606 14.1270 214° Southwest  Level Estimated
Sat 04:44:00 AM 56.7756 14.0226 214° Southwest  Level Estimated
Sat 04:45:00 AM 56.6905 13.9187 214° Southwest  Level Estimated
Sat 04:46:00 AM 56.6054 13.8153 214° Southwest  Level Estimated
Sat 04:47:00 AM 56.5201 13.7123 214° Southwest  Level Estimated
Sat 04:48:00 AM 56.4348 13.6097 214° Southwest  Level Estimated
Sat 04:49:00 AM 56.3493 13.5077 214° Southwest  Level Estimated
Sat 04:50:00 AM 56.2639 13.4061 213° Southwest  Level Estimated
Sat 04:51:00 AM 56.1783 13.3049 213° Southwest  Level Estimated
Sat 04:52:00 AM 56.0926 13.2042 213° Southwest  Level Estimated
Sat 04:53:00 AM 56.0068 13.1040 213° Southwest  Level Estimated
Sat 04:54:00 AM 55.9210 13.0042 213° Southwest  Level Estimated
Sat 04:55:00 AM 55.8351 12.9048 213° Southwest  Level Estimated
Sat 04:56:00 AM 55.7491 12.8059 213° Southwest  Level Estimated
Sat 04:57:00 AM 55.6630 12.7074 213° Southwest  Level Estimated
Sat 04:58:00 AM 55.6179 12.6560 213° Southwest  Level Estimated
Sat 04:59:00 AM 55.6179 12.6560 159° South  Level Estimated
Sat 05:00:00 AM 55.6179 12.6560 159° South  Level Estimated
Sat 05:01:00 AM 55.6179 12.6560 159° South  Level Estimated
Sat 05:02:00 AM 55.6179 12.6560 159° South  Level Estimated
Sat 05:03:00 AM 55.6179 12.6560 159° South  Level Estimated
Sat 05:04:00 AM 55.6179 12.6560 159° South  Level Estimated
Sat 05:05:00 AM 55.6179 12.6560 159° South  Level Estimated
Sat 05:06:00 AM 55.6179 12.6560 159° South  Level Estimated
Sat 05:07:00 AM 55.6179 12.6560 159° South  Level Estimated
Sat 05:08:00 AM 55.6179 12.6560 159° South  Level Estimated
Sat 05:09:00 AM 55.6179 12.6560 159° South  Level Estimated
Sat 05:10:00 AM 55.6179 12.6560 159° South  Level Estimated
Sat 05:11:00 AM 55.6179 12.6560 159° South  Level Estimated
Sat 05:12:00 AM 55.6179 12.6560 159° South  Level Estimated

Login

Don't have an account? Register now (free) for customized features, flight alerts, and more!